Aérodrome :
LOGIN :

S'inscrire | Disclaimer

   EN    FR    IT 

 










Légende :    VFR   VFR Marginal   IFR   IFR Intensif   IFR Très Intensif
Visi : 
Plafond : 
>= 8 km
>= 3000ft
5 à 8 km
1000 à 3000 ft
1500m à 5 km
500 à 1000 ft
800 à 1500m
200 à 500 ft
< 800m
< 200 ft
Symboles :   Orages  Brouillard  Fortes neiges  Fortes précipitations  Vent > 20 kt
SIGMETs :   Divers  Orages  Givrage  Turbulence  Onde Orograph.  Cendres Volcan.







- Altitude de l'aérodrome : 13 ft
- Code IATA : SNR
- Voir les cartes d'approche


LFRZ - St-Nazaire

DERNIER METAR :
  • 142130Z AUTO 10006KT 0600 0550 R25/0750N FG VV/// 12/12 Q1020 NOSIG

METARs EXPIRÉS :
  • 142100Z AUTO 09004KT 0650 R25/0800N FG VV/// 12/12 Q1020 TEMPO 0500 FG
  • 142030Z AUTO 11005KT 6000 OVC004 13/12 Q1020 TEMPO 0500 FG VV///
  • 142000Z AUTO 14003KT 7000 OVC007 13/12 Q1020 TEMPO 0500 FG VV///
  • 141930Z AUTO 13006KT 9000 OVC008 13/12 Q1021 TEMPO 0500 FG VV///
  • 141900Z AUTO 14004KT 8000 OVC008 13/12 Q1021 BECMG 3000 BR BKN010

TAF AMD TAF LFRZ
Valide du 14 à 19h jusqu'au 15 à 18h UTC


141908Z 1419/1518 12007KT 9999 BKN008
BECMG 1419/1421 3000 BR
PROB30
TEMPO 1421/1505 0500 FG VV///
BECMG 1508/1510 8000 NSW SCT030
Pas de NOTAMs connus pour ce terrain.



MET'MAP, la Météo Aéronautique d'un coup d'oeil ! - Copyright ORBIFLY Décembre 2007 - Disclaimer

ORBIFLY MET'MAP TEAM :

Programmation & Développement : Alexandra Zaïnal
Conception & Développement : Baudouin d'Aumeries
Co-Programmation & Développement : Marc-Olivier Méhu
Soutien technique & logistique : Manuel Goepfert

Contact : metmap@orbifly.com




SOURCES & CREDITS :

   NOAA